createdAt,value
2018-09-05T00:01:11.065Z,75.33
2018-09-05T00:03:39.183Z,79.57
2018-09-05T00:06:07.076Z,70.13
2018-09-05T00:08:35.165Z,63.73
2018-09-05T00:11:03.140Z,74.10
2018-09-05T00:13:31.133Z,74.87
2018-09-05T00:15:59.086Z,76.73
2018-09-05T00:18:27.008Z,62.33
2018-09-05T00:20:55.027Z,80.50
2018-09-05T00:23:22.972Z,83.03
2018-09-05T00:25:51.003Z,101.73
2018-09-05T00:28:18.883Z,121.70
2018-09-05T00:30:46.792Z,121.30
2018-09-05T00:33:14.633Z,128.37
2018-09-05T00:35:42.566Z,144.47
2018-09-05T00:38:10.435Z,140.07
2018-09-05T00:40:38.331Z,167.73
2018-09-05T00:43:06.164Z,132.97
2018-09-05T00:45:34.009Z,145.07
2018-09-05T00:48:01.890Z,153.10
2018-09-05T00:50:30.232Z,144.73
2018-09-05T00:52:58.137Z,140.53
2018-09-05T00:55:25.945Z,141.67
2018-09-05T00:57:53.967Z,144.97
2018-09-05T01:00:22.118Z,130.07
2018-09-05T01:02:50.017Z,172.63
2018-09-05T01:05:18.005Z,141.30
2018-09-05T01:07:45.926Z,167.30
2018-09-05T01:10:13.884Z,157.27
2018-09-05T01:12:42.051Z,156.97
2018-09-05T01:15:09.937Z,162.50
2018-09-05T01:17:37.953Z,147.43
2018-09-05T01:20:05.864Z,158.30
2018-09-05T01:22:33.697Z,175.10
2018-09-05T01:25:01.649Z,157.13
2018-09-05T01:27:29.657Z,148.33
2018-09-05T01:29:57.610Z,158.07
2018-09-05T01:32:25.468Z,176.97
2018-09-05T01:34:53.351Z,157.87
2018-09-05T01:37:21.241Z,143.13
2018-09-05T01:39:49.163Z,158.90
2018-09-05T01:42:17.059Z,135.87
2018-09-05T01:44:45.033Z,132.30
2018-09-05T01:47:12.937Z,142.27
2018-09-05T01:49:40.856Z,138.30
2018-09-05T01:52:08.733Z,147.00
2018-09-05T01:54:36.727Z,142.20
2018-09-05T01:57:04.661Z,133.13
2018-09-05T01:59:32.567Z,140.07
2018-09-05T02:02:00.703Z,142.47
2018-09-05T02:04:28.563Z,116.27
2018-09-05T02:06:56.491Z,141.10
2018-09-05T02:09:24.554Z,122.47
2018-09-05T02:11:52.441Z,122.27
2018-09-05T02:14:20.279Z,135.80
2018-09-05T02:16:48.131Z,126.37
2018-09-05T02:19:16.043Z,132.87
2018-09-05T02:21:43.931Z,129.63
2018-09-05T02:24:11.921Z,120.70
2018-09-05T02:26:39.778Z,123.50
2018-09-05T02:29:07.641Z,116.13
2018-09-05T02:31:35.555Z,131.57
2018-09-05T02:34:03.565Z,122.13
2018-09-05T02:36:31.489Z,124.17
2018-09-05T02:38:59.376Z,124.53
2018-09-05T02:41:27.457Z,112.23
2018-09-05T02:44:00.854Z,121.20
2018-09-05T02:46:28.750Z,112.57
2018-09-05T02:48:56.693Z,115.83
2018-09-05T02:51:24.543Z,122.50
2018-09-05T02:53:52.400Z,105.77
2018-09-05T02:56:22.834Z,114.47
2018-09-05T02:58:50.981Z,113.10
2018-09-05T03:01:18.977Z,121.60
2018-09-05T03:03:46.919Z,120.13
2018-09-05T03:06:14.747Z,128.83
2018-09-05T03:08:42.589Z,115.83
2018-09-05T03:11:10.501Z,120.40
2018-09-05T03:13:38.406Z,122.57
2018-09-05T03:16:06.308Z,121.17
2018-09-05T03:18:34.383Z,123.03
2018-09-05T03:21:02.438Z,121.27
2018-09-05T03:23:30.326Z,121.33
2018-09-05T03:25:58.163Z,119.23
2018-09-05T03:28:27.176Z,116.27
2018-09-05T03:30:54.987Z,115.93
2018-09-05T03:33:22.805Z,128.80
2018-09-05T03:35:50.580Z,115.80
2018-09-05T03:38:18.393Z,111.07
2018-09-05T03:40:46.233Z,125.03
2018-09-05T03:43:14.017Z,129.60
2018-09-05T03:45:41.799Z,111.57
2018-09-05T03:48:09.603Z,117.70
2018-09-05T03:50:37.640Z,127.93
2018-09-05T03:53:05.414Z,120.67
2018-09-05T03:55:33.221Z,114.90
2018-09-05T03:58:01.216Z,120.57
2018-09-05T04:00:33.485Z,114.50
2018-09-05T04:03:02.309Z,115.37
2018-09-05T04:05:30.295Z,114.20
2018-09-05T04:07:58.072Z,123.63
2018-09-05T04:10:26.230Z,108.23
2018-09-05T04:12:53.969Z,142.73
2018-09-05T04:15:21.827Z,123.97
2018-09-05T04:17:50.069Z,126.17
2018-09-05T04:20:17.865Z,129.03
2018-09-05T04:22:45.748Z,121.20
2018-09-05T04:25:13.763Z,120.63
2018-09-05T04:27:41.626Z,131.00
2018-09-05T04:30:09.421Z,123.03
2018-09-05T04:32:37.540Z,132.80
2018-09-05T04:35:05.449Z,121.53
2018-09-05T04:37:33.367Z,115.83
2018-09-05T04:40:01.445Z,124.03
2018-09-05T04:42:29.185Z,132.50
2018-09-05T04:44:57.045Z,140.37
2018-09-05T04:47:25.475Z,132.70
2018-09-05T04:49:53.293Z,139.50
2018-09-05T04:52:21.090Z,143.10
2018-09-05T04:54:49.282Z,145.13
2018-09-05T04:57:17.181Z,161.87
2018-09-05T04:59:45.119Z,156.90
2018-09-05T05:02:13.119Z,155.23
2018-09-05T05:04:40.943Z,166.53
2018-09-05T05:07:08.774Z,182.93
2018-09-05T05:09:36.929Z,179.63
2018-09-05T05:12:04.835Z,177.33
2018-09-05T05:14:32.694Z,186.97
2018-09-05T05:17:00.674Z,201.07
2018-09-05T05:19:28.617Z,196.57
2018-09-05T05:21:56.462Z,191.77
2018-09-05T05:24:24.543Z,207.57
2018-09-05T05:26:52.590Z,215.33
2018-09-05T05:29:20.490Z,192.70
2018-09-05T05:31:48.531Z,206.83
2018-09-05T05:34:17.056Z,194.30
2018-09-05T05:36:44.935Z,193.83
2018-09-05T05:39:12.895Z,181.73
2018-09-05T05:41:40.765Z,191.20
2018-09-05T05:44:08.637Z,192.07
2018-09-05T05:46:36.699Z,189.70
2018-09-05T05:49:04.741Z,175.37
2018-09-05T05:51:32.643Z,196.57
2018-09-05T05:54:00.787Z,169.97
2018-09-05T05:56:28.903Z,175.23
2018-09-05T05:58:56.777Z,188.03
2018-09-05T06:01:24.821Z,167.10
2018-09-05T06:03:52.715Z,153.40
2018-09-05T06:06:20.842Z,169.17
2018-09-05T06:08:49.813Z,160.13
2018-09-05T06:11:17.759Z,169.03
2018-09-05T06:13:45.639Z,170.87
2018-09-05T06:16:13.557Z,169.77
2018-09-05T06:18:41.570Z,163.13
2018-09-05T06:21:09.653Z,175.97
2018-09-05T06:23:37.613Z,178.77
2018-09-05T06:26:06.077Z,175.40
2018-09-05T06:28:34.162Z,169.10
2018-09-05T06:31:02.277Z,162.07
2018-09-05T06:33:30.289Z,151.17
2018-09-05T06:35:58.397Z,162.60
2018-09-05T06:38:26.342Z,158.97
2018-09-05T06:40:54.203Z,170.13
2018-09-05T06:43:22.245Z,156.07
2018-09-05T06:45:50.312Z,156.80
2018-09-05T06:48:18.248Z,168.43
2018-09-05T06:50:46.157Z,150.27
2018-09-05T06:53:14.363Z,158.43
2018-09-05T06:55:42.319Z,161.57
2018-09-05T06:58:10.237Z,167.43
2018-09-05T07:00:38.275Z,172.57
2018-09-05T07:03:06.250Z,167.70
2018-09-05T07:05:34.208Z,168.77
2018-09-05T07:08:02.245Z,168.20
2018-09-05T07:10:30.201Z,171.67
2018-09-05T07:12:58.202Z,170.70
2018-09-05T07:15:26.192Z,169.43
2018-09-05T07:17:54.041Z,169.70
2018-09-05T07:20:21.967Z,165.57
2018-09-05T07:22:49.979Z,169.13
2018-09-05T07:25:17.815Z,170.50
2018-09-05T07:27:45.664Z,167.63
2018-09-05T07:30:15.370Z,163.43
2018-09-05T07:32:43.313Z,179.87
2018-09-05T07:35:11.251Z,169.50
2018-09-05T07:37:39.671Z,177.17
2018-09-05T07:40:07.571Z,187.83
2018-09-05T07:42:35.356Z,187.40
2018-09-05T07:45:03.335Z,177.97
2018-09-05T07:47:31.229Z,173.97
2018-09-05T07:49:59.042Z,159.77
2018-09-05T07:52:26.984Z,149.37
2018-09-05T07:54:54.896Z,155.27
2018-09-05T07:57:22.746Z,159.73
2018-09-05T07:59:50.668Z,153.60
2018-09-05T08:02:18.576Z,145.13
2018-09-05T08:04:46.502Z,144.60
2018-09-05T08:07:14.360Z,155.87
2018-09-05T08:09:42.175Z,140.97
2018-09-05T08:12:10.122Z,137.53
2018-09-05T08:14:38.109Z,131.07
2018-09-05T08:17:05.904Z,131.00
2018-09-05T08:19:33.784Z,120.93
2018-09-05T08:22:01.807Z,103.67
2018-09-05T08:24:29.740Z,109.47
2018-09-05T08:26:57.539Z,98.60
2018-09-05T08:29:25.347Z,100.57
2018-09-05T08:31:53.314Z,90.50
2018-09-05T08:34:21.199Z,95.70
2018-09-05T08:36:49.289Z,91.10
2018-09-05T08:39:16.929Z,101.10
2018-09-05T08:41:44.803Z,89.17
2018-09-05T08:44:12.753Z,90.70
2018-09-05T08:46:40.514Z,87.23
2018-09-05T08:49:08.398Z,83.87
2018-09-05T08:51:36.314Z,90.33
2018-09-05T08:54:04.369Z,77.47
2018-09-05T08:56:32.384Z,85.37
2018-09-05T08:59:00.381Z,90.70
2018-09-05T09:01:28.143Z,83.93
2018-09-05T09:03:55.981Z,78.23
2018-09-05T09:06:23.800Z,74.83
2018-09-05T09:08:51.568Z,78.50
2018-09-05T09:11:19.315Z,74.67
2018-09-05T09:13:47.068Z,78.90
2018-09-05T09:16:14.899Z,80.87
2018-09-05T09:18:43.768Z,81.40
2018-09-05T09:21:11.524Z,79.80
2018-09-05T09:23:39.288Z,81.97
2018-09-05T09:26:07.913Z,81.13
2018-09-05T09:28:35.891Z,84.57
2018-09-05T09:31:03.857Z,75.13
2018-09-05T09:33:31.672Z,75.47
2018-09-05T09:35:59.493Z,78.50
2018-09-05T09:38:27.310Z,73.97
2018-09-05T09:40:55.120Z,70.37
2018-09-05T09:43:22.950Z,70.80
2018-09-05T09:45:50.885Z,70.43
2018-09-05T09:48:18.693Z,70.63
2018-09-05T09:50:46.526Z,71.53
2018-09-05T09:53:14.337Z,65.20
2018-09-05T09:55:42.181Z,71.37
2018-09-05T09:58:10.085Z,65.67
2018-09-05T10:00:43.639Z,72.67
2018-09-05T10:03:17.224Z,67.33
2018-09-05T10:05:50.771Z,73.90
2018-09-05T10:08:24.259Z,69.70
2018-09-05T10:10:57.714Z,68.93
2018-09-05T10:13:31.184Z,69.90
2018-09-05T10:16:04.615Z,65.53
2018-09-05T10:18:34.726Z,66.00
2018-09-05T10:21:02.605Z,69.00
2018-09-05T10:23:30.511Z,68.83
2018-09-05T10:25:58.313Z,69.00
2018-09-05T10:28:26.258Z,67.60
2018-09-05T10:30:54.033Z,69.30
2018-09-05T10:33:21.900Z,67.20
2018-09-05T10:35:49.896Z,64.70
2018-09-05T10:38:17.775Z,59.70
2018-09-05T10:40:45.799Z,61.37
2018-09-05T10:43:13.660Z,64.73
2018-09-05T10:45:41.589Z,65.93
2018-09-05T10:48:09.683Z,59.47
2018-09-05T10:50:37.631Z,67.63
2018-09-05T10:53:05.824Z,63.33
2018-09-05T10:55:33.669Z,60.10
2018-09-05T10:58:01.437Z,62.27
2018-09-05T11:00:29.187Z,66.73
2018-09-05T11:02:57.046Z,61.37
2018-09-05T11:05:24.909Z,61.90
2018-09-05T11:07:52.910Z,65.90
2018-09-05T11:10:20.766Z,70.73
2018-09-05T11:12:48.570Z,66.97
2018-09-05T11:15:16.346Z,63.93
2018-09-05T11:17:44.215Z,67.80
2018-09-05T11:20:12.413Z,69.13
2018-09-05T11:22:40.712Z,70.03
2018-09-05T11:25:08.684Z,64.30
2018-09-05T11:27:36.532Z,68.53
2018-09-05T11:30:04.582Z,64.47
2018-09-05T11:32:32.805Z,65.97
2018-09-05T11:35:00.566Z,62.70
2018-09-05T11:37:28.413Z,66.27
2018-09-05T11:39:56.251Z,62.93
2018-09-05T11:42:24.152Z,64.73
2018-09-05T11:44:52.086Z,60.90
2018-09-05T11:47:20.135Z,63.53
2018-09-05T11:49:47.992Z,65.07
2018-09-05T11:52:15.828Z,62.17
2018-09-05T11:54:43.687Z,62.00
2018-09-05T11:57:11.570Z,62.17
2018-09-05T11:59:39.314Z,60.77
2018-09-05T12:02:07.201Z,60.20
2018-09-05T12:04:35.023Z,63.87
2018-09-05T12:07:02.962Z,63.57
2018-09-05T12:09:31.021Z,61.10
2018-09-05T12:11:58.877Z,63.00
2018-09-05T12:14:26.679Z,63.50
2018-09-05T12:16:54.823Z,60.93
2018-09-05T12:19:22.747Z,59.13
2018-09-05T12:21:50.559Z,62.80
2018-09-05T12:24:18.605Z,63.57
2018-09-05T12:26:46.641Z,59.40
2018-09-05T12:29:14.887Z,62.23
2018-09-05T12:31:43.231Z,62.27
2018-09-05T12:34:11.762Z,62.13
2018-09-05T12:36:39.636Z,61.50
2018-09-05T12:39:11.771Z,62.73
2018-09-05T12:41:39.843Z,60.57
2018-09-05T12:44:08.067Z,57.33
2018-09-05T12:46:36.194Z,58.40
2018-09-05T12:49:04.091Z,59.47
2018-09-05T12:51:32.179Z,57.27
2018-09-05T12:54:00.453Z,59.57
2018-09-05T12:56:28.697Z,62.03
2018-09-05T12:58:56.553Z,58.77
2018-09-05T13:01:24.921Z,59.20
2018-09-05T13:03:52.822Z,56.20
2018-09-05T13:06:20.765Z,58.27
2018-09-05T13:08:48.783Z,59.80
2018-09-05T13:11:16.824Z,61.93
2018-09-05T13:13:44.635Z,66.90
2018-09-05T13:16:12.569Z,61.13
2018-09-05T13:18:40.595Z,59.13
2018-09-05T13:21:08.525Z,58.90
2018-09-05T13:23:36.569Z,60.43
2018-09-05T13:26:04.706Z,58.40
2018-09-05T13:28:32.539Z,59.80
2018-09-05T13:31:00.548Z,61.77
2018-09-05T13:33:28.449Z,58.43
2018-09-05T13:35:56.441Z,59.27
2018-09-05T13:38:24.274Z,61.53
2018-09-05T13:40:52.172Z,62.83
2018-09-05T13:43:20.093Z,61.33
2018-09-05T13:45:48.178Z,62.90
2018-09-05T13:48:16.007Z,62.40
2018-09-05T13:50:44.061Z,64.67
2018-09-05T13:53:12.283Z,65.97
2018-09-05T13:55:40.151Z,63.23
2018-09-05T13:58:08.044Z,63.73
2018-09-05T14:00:36.299Z,74.80
2018-09-05T14:03:04.839Z,72.77
2018-09-05T14:05:33.316Z,68.43
2018-09-05T14:08:01.999Z,71.70
2018-09-05T14:10:30.510Z,67.20
2018-09-05T14:12:59.060Z,68.27
2018-09-05T14:15:27.834Z,64.83
2018-09-05T14:17:56.787Z,66.53
2018-09-05T14:20:25.264Z,65.27
2018-09-05T14:22:54.053Z,64.40
2018-09-05T14:25:22.290Z,64.70
2018-09-05T14:27:50.810Z,63.03
2018-09-05T14:30:19.482Z,65.03
2018-09-05T14:32:47.805Z,61.00
2018-09-05T14:35:15.967Z,60.80
2018-09-05T14:37:44.454Z,61.53
2018-09-05T14:40:12.826Z,61.17
2018-09-05T14:42:41.064Z,66.27
2018-09-05T14:45:09.654Z,59.53
2018-09-05T14:47:37.883Z,68.40
2018-09-05T14:50:06.320Z,62.13
2018-09-05T14:52:34.684Z,61.27
2018-09-05T14:55:03.308Z,62.47
2018-09-05T14:57:31.557Z,62.30
2018-09-05T15:00:00.345Z,63.07
2018-09-05T15:02:28.820Z,59.37
2018-09-05T15:04:57.496Z,59.43
2018-09-05T15:07:26.280Z,60.77
2018-09-05T15:09:54.845Z,58.57
2018-09-05T15:12:23.393Z,63.67
2018-09-05T15:14:51.625Z,62.23
2018-09-05T15:17:19.888Z,57.60
2018-09-05T15:19:48.523Z,58.80
2018-09-05T15:22:17.326Z,59.83
2018-09-05T15:24:45.580Z,58.03
2018-09-05T15:27:13.634Z,59.80
2018-09-05T15:29:42.606Z,63.00
2018-09-05T15:32:11.129Z,61.93
2018-09-05T15:34:39.660Z,61.87
2018-09-05T15:37:08.444Z,61.90
2018-09-05T15:39:36.945Z,59.67
2018-09-05T15:42:05.440Z,59.70
2018-09-05T15:44:34.036Z,60.00
2018-09-05T15:47:02.490Z,60.10
2018-09-05T15:49:31.002Z,57.67
2018-09-05T15:51:59.694Z,58.53
2018-09-05T15:54:27.980Z,61.03
2018-09-05T15:56:56.181Z,61.40
2018-09-05T15:59:24.864Z,60.00
2018-09-05T16:01:54.418Z,56.83
2018-09-05T16:04:22.987Z,60.00
2018-09-05T16:06:52.689Z,57.03
2018-09-05T16:09:20.950Z,58.37
2018-09-05T16:11:49.265Z,57.60
2018-09-05T16:14:17.709Z,58.93
2018-09-05T16:16:46.031Z,59.57
2018-09-05T16:19:14.511Z,57.53
2018-09-05T16:21:43.174Z,56.83
2018-09-05T16:24:11.399Z,54.13
2018-09-05T16:26:39.833Z,52.37
2018-09-05T16:29:08.736Z,54.20
2018-09-05T16:31:37.113Z,54.87
2018-09-05T16:34:05.193Z,54.13
2018-09-05T16:36:33.780Z,50.93
2018-09-05T16:39:02.405Z,51.73
2018-09-05T16:41:31.215Z,54.67
2018-09-05T16:44:00.112Z,51.90
2018-09-05T16:46:28.729Z,51.73
2018-09-05T16:48:57.101Z,52.80
2018-09-05T16:51:25.856Z,49.47
2018-09-05T16:53:54.429Z,52.70
2018-09-05T16:56:23.078Z,50.53
2018-09-05T16:58:51.762Z,51.80
2018-09-05T17:01:20.278Z,51.83
2018-09-05T17:03:48.904Z,50.97
2018-09-05T17:06:17.767Z,53.13
2018-09-05T17:08:46.441Z,53.03
2018-09-05T17:11:14.843Z,53.63
2018-09-05T17:13:43.744Z,50.90
2018-09-05T17:16:12.409Z,54.30
2018-09-05T17:18:41.063Z,53.93
2018-09-05T17:21:10.038Z,54.87
2018-09-05T17:23:38.700Z,52.23
2018-09-05T17:26:07.240Z,55.27
2018-09-05T17:28:36.071Z,57.07
2018-09-05T17:31:04.752Z,58.83
2018-09-05T17:33:33.510Z,59.30
2018-09-05T17:36:02.447Z,60.60
2018-09-05T17:38:32.391Z,61.13
2018-09-05T17:41:01.313Z,62.93
2018-09-05T17:43:30.169Z,63.40
2018-09-05T17:45:58.589Z,65.57
2018-09-05T17:48:26.937Z,68.13
2018-09-05T17:50:55.683Z,71.07
2018-09-05T17:53:24.381Z,70.63
2018-09-05T17:55:53.118Z,71.80
2018-09-05T17:58:22.184Z,75.47
2018-09-05T18:00:50.945Z,78.53
2018-09-05T18:03:19.432Z,81.60
2018-09-05T18:05:48.045Z,81.47
2018-09-05T18:08:16.762Z,83.00
2018-09-05T18:10:45.168Z,82.30
2018-09-05T18:13:14.052Z,77.70
2018-09-05T18:15:42.704Z,76.23
2018-09-05T18:18:11.379Z,77.77
2018-09-05T18:20:40.151Z,74.70
2018-09-05T18:23:09.116Z,67.63
2018-09-05T18:25:37.784Z,69.17
2018-09-05T18:28:06.928Z,66.33
2018-09-05T18:30:35.731Z,60.77
2018-09-05T18:33:04.606Z,44.50
2018-09-05T18:35:33.692Z,28.97
2018-09-05T18:38:02.653Z,28.00
2018-09-05T18:40:31.140Z,22.33
2018-09-05T18:43:00.083Z,22.07
2018-09-05T18:45:28.728Z,19.70
2018-09-05T18:47:57.291Z,19.20
2018-09-05T18:50:25.959Z,19.10
2018-09-05T18:53:01.252Z,22.00
2018-09-05T18:55:29.754Z,23.57
2018-09-05T18:57:58.968Z,25.37
2018-09-05T19:00:27.574Z,26.43
2018-09-05T19:02:56.419Z,29.27
2018-09-05T19:05:25.074Z,30.90
2018-09-05T19:07:53.663Z,29.77
2018-09-05T19:10:22.968Z,33.00
2018-09-05T19:12:51.584Z,32.47
2018-09-05T19:15:20.130Z,29.73
2018-09-05T19:17:49.091Z,30.13
2018-09-05T19:20:17.844Z,28.30
2018-09-05T19:22:46.566Z,27.97
2018-09-05T19:25:15.389Z,26.23
2018-09-05T19:27:43.925Z,23.80
2018-09-05T19:30:12.555Z,23.57
2018-09-05T19:32:41.477Z,22.77
2018-09-05T19:35:10.381Z,22.40
2018-09-05T19:37:39.032Z,21.93
2018-09-05T19:40:08.401Z,20.50
2018-09-05T19:42:37.594Z,20.10
2018-09-05T19:45:06.805Z,17.57
2018-09-05T19:47:35.653Z,17.73
2018-09-05T19:50:05.200Z,14.00
2018-09-05T19:52:34.042Z,14.43
2018-09-05T19:55:02.977Z,16.00
2018-09-05T19:57:31.538Z,15.63
2018-09-05T20:00:00.178Z,15.40
2018-09-05T20:02:29.033Z,14.17
2018-09-05T20:04:57.451Z,13.40
2018-09-05T20:07:25.931Z,11.67
2018-09-05T20:09:54.668Z,10.43
2018-09-05T20:12:23.072Z,10.57
2018-09-05T20:14:51.217Z,10.77
2018-09-05T20:17:19.887Z,9.87
2018-09-05T20:19:48.131Z,9.57
2018-09-05T20:22:16.613Z,10.27
2018-09-05T20:24:45.515Z,9.43
2018-09-05T20:27:14.149Z,9.43
2018-09-05T20:29:42.777Z,9.13
2018-09-05T20:32:12.196Z,9.37
2018-09-05T20:34:40.840Z,8.43
2018-09-05T20:37:09.738Z,9.40
2018-09-05T20:39:38.636Z,9.00
2018-09-05T20:42:07.822Z,9.00
2018-09-05T20:44:36.479Z,8.57
2018-09-05T20:47:05.500Z,9.20
2018-09-05T20:49:34.232Z,7.67
2018-09-05T20:52:02.826Z,7.73
2018-09-05T20:54:31.863Z,8.47
2018-09-05T20:57:00.509Z,7.83
2018-09-05T20:59:29.016Z,7.60
2018-09-05T21:01:57.901Z,9.20
2018-09-05T21:04:26.452Z,8.33
2018-09-05T21:06:55.601Z,8.27
2018-09-05T21:09:24.311Z,8.07
2018-09-05T21:11:53.055Z,8.73
2018-09-05T21:14:21.835Z,9.23
2018-09-05T21:16:50.790Z,9.07
2018-09-05T21:19:19.374Z,10.83
2018-09-05T21:21:48.001Z,10.30
2018-09-05T21:24:16.618Z,10.30
2018-09-05T21:26:45.310Z,10.70
2018-09-05T21:29:13.976Z,10.10
2018-09-05T21:31:42.628Z,9.70
2018-09-05T21:34:11.053Z,9.53
2018-09-05T21:36:39.816Z,9.80
2018-09-05T21:39:09.631Z,9.07
2018-09-05T21:41:38.413Z,9.03
2018-09-05T21:44:07.398Z,9.40
2018-09-05T21:46:36.081Z,8.30
2018-09-05T21:49:05.002Z,8.83
2018-09-05T21:51:33.420Z,8.53
2018-09-05T21:54:02.125Z,8.83
2018-09-05T21:56:30.811Z,9.27
2018-09-05T21:58:59.249Z,8.77
2018-09-05T22:01:27.689Z,12.07
2018-09-05T22:03:56.116Z,8.77
2018-09-05T22:06:24.644Z,9.47
2018-09-05T22:08:53.044Z,9.37
2018-09-05T22:11:26.697Z,9.73
2018-09-05T22:13:55.885Z,9.43
2018-09-05T22:16:24.256Z,12.23
2018-09-05T22:18:52.760Z,10.07
2018-09-05T22:21:20.911Z,10.27
2018-09-05T22:23:49.275Z,11.77
2018-09-05T22:26:17.528Z,10.43
2018-09-05T22:28:45.574Z,10.50
2018-09-05T22:31:13.865Z,11.67
2018-09-05T22:33:41.950Z,11.83
2018-09-05T22:36:09.960Z,14.00
2018-09-05T22:38:37.938Z,13.67
2018-09-05T22:41:06.197Z,16.33
2018-09-05T22:43:45.447Z,16.37
2018-09-05T22:46:24.537Z,19.17
2018-09-05T22:49:04.589Z,17.97
2018-09-05T22:52:19.347Z,21.83
2018-09-05T22:55:47.990Z,19.57
2018-09-05T22:59:24.621Z,25.03
2018-09-05T23:02:05.794Z,24.20
2018-09-05T23:06:02.465Z,25.13
2018-09-05T23:08:34.950Z,25.50
2018-09-05T23:11:14.115Z,26.33
2018-09-05T23:13:53.411Z,27.07
2018-09-05T23:16:32.733Z,32.47
2018-09-05T23:19:41.944Z,29.57
2018-09-05T23:22:10.091Z,30.40
2018-09-05T23:24:38.574Z,34.10
2018-09-05T23:27:06.904Z,34.27
2018-09-05T23:29:35.287Z,31.47
2018-09-05T23:32:03.631Z,32.63
2018-09-05T23:34:32.014Z,31.67
2018-09-05T23:37:00.191Z,33.73
2018-09-05T23:39:28.573Z,34.53
2018-09-05T23:41:57.056Z,34.67
2018-09-05T23:44:25.139Z,38.27
2018-09-05T23:46:53.237Z,34.53
2018-09-05T23:49:21.266Z,36.90
2018-09-05T23:51:49.419Z,34.90
2018-09-05T23:54:17.806Z,34.53
2018-09-05T23:56:47.030Z,34.43
2018-09-05T23:59:15.070Z,37.37
